createdAt,value
2019-05-14T00:00:01.333Z,4.80
2019-05-14T00:00:36.047Z,4.90
2019-05-14T00:01:11.811Z,4.80
2019-05-14T00:01:46.909Z,4.80
2019-05-14T00:02:21.635Z,4.80
2019-05-14T00:02:56.752Z,4.80
2019-05-14T00:03:31.917Z,4.80
2019-05-14T00:04:06.829Z,4.80
2019-05-14T00:04:42.373Z,4.80
2019-05-14T00:05:17.504Z,4.80
2019-05-14T00:05:52.075Z,4.80
2019-05-14T00:06:26.972Z,4.80
2019-05-14T00:07:01.493Z,4.80
2019-05-14T00:07:36.266Z,4.80
2019-05-14T00:08:11.635Z,4.80
2019-05-14T00:08:46.345Z,4.80
2019-05-14T00:09:21.537Z,4.80
2019-05-14T00:09:56.390Z,4.80
2019-05-14T00:10:32.181Z,4.80
2019-05-14T00:11:07.050Z,4.80
2019-05-14T00:11:42.137Z,4.80
2019-05-14T00:12:17.131Z,4.80
2019-05-14T00:12:51.902Z,4.80
2019-05-14T00:13:26.836Z,4.90
2019-05-14T00:14:01.442Z,4.80
2019-05-14T00:14:40.090Z,4.80
2019-05-14T00:15:13.226Z,4.80
2019-05-14T00:15:47.996Z,4.80
2019-05-14T00:16:24.344Z,4.80
2019-05-14T00:16:58.987Z,4.80
2019-05-14T00:17:34.016Z,4.80
2019-05-14T00:18:08.632Z,4.80
2019-05-14T00:18:43.166Z,4.80
2019-05-14T00:19:17.972Z,4.80
2019-05-14T00:20:06.363Z,4.80
2019-05-14T00:20:31.400Z,4.80
2019-05-14T00:21:05.461Z,4.80
2019-05-14T00:21:42.151Z,4.90
2019-05-14T00:22:16.641Z,4.90
2019-05-14T00:22:52.277Z,4.90
2019-05-14T00:23:26.589Z,4.90
2019-05-14T00:24:01.883Z,4.90
2019-05-14T00:24:36.948Z,4.90
2019-05-14T00:25:12.108Z,4.80
2019-05-14T00:25:46.698Z,4.80
2019-05-14T00:26:21.628Z,4.90
2019-05-14T00:26:56.229Z,4.80
2019-05-14T00:27:31.294Z,4.80
2019-05-14T00:28:05.900Z,4.80
2019-05-14T00:28:42.245Z,4.80
2019-05-14T00:29:16.993Z,4.80
2019-05-14T00:29:52.037Z,4.80
2019-05-14T00:30:26.168Z,4.70
2019-05-14T00:31:02.991Z,4.80
2019-05-14T00:31:37.534Z,4.70
2019-05-14T00:32:12.177Z,4.70
2019-05-14T00:32:46.766Z,4.80
2019-05-14T00:33:22.498Z,4.70
2019-05-14T00:33:57.509Z,4.70
2019-05-14T00:34:32.326Z,4.70
2019-05-14T00:35:07.209Z,4.70
2019-05-14T00:35:41.613Z,4.80
2019-05-14T00:36:16.494Z,4.80
2019-05-14T00:36:52.405Z,4.70
2019-05-14T00:37:26.871Z,4.80
2019-05-14T00:38:01.588Z,4.80
2019-05-14T00:38:36.352Z,4.80
2019-05-14T00:39:11.369Z,4.70
2019-05-14T00:39:45.842Z,4.70
2019-05-14T00:40:22.067Z,4.70
2019-05-14T00:40:56.877Z,4.70
2019-05-14T00:41:31.647Z,4.70
2019-05-14T00:42:06.327Z,4.70
2019-05-14T00:42:41.567Z,4.70
2019-05-14T00:43:16.575Z,4.70
2019-05-14T00:43:51.531Z,4.70
2019-05-14T00:44:26.043Z,4.70
2019-05-14T00:45:01.297Z,4.70
2019-05-14T00:45:36.490Z,4.70
2019-05-14T00:46:11.877Z,4.70
2019-05-14T00:46:46.487Z,4.70
2019-05-14T00:47:21.809Z,4.70
2019-05-14T00:47:56.637Z,4.70
2019-05-14T00:48:32.042Z,4.70
2019-05-14T00:49:06.685Z,4.70
2019-05-14T00:49:42.454Z,4.70
2019-05-14T00:50:17.832Z,4.70
2019-05-14T00:50:52.821Z,4.70
2019-05-14T00:51:27.175Z,4.70
2019-05-14T00:52:02.429Z,4.70
2019-05-14T00:52:37.443Z,4.70
2019-05-14T00:53:12.114Z,4.70
2019-05-14T00:53:46.957Z,4.70
2019-05-14T00:54:21.872Z,4.70
2019-05-14T00:54:56.532Z,4.70
2019-05-14T00:55:31.718Z,4.70
2019-05-14T00:56:06.316Z,4.70
2019-05-14T00:56:41.860Z,4.70
2019-05-14T00:57:16.609Z,4.70
2019-05-14T00:57:52.204Z,4.70
2019-05-14T00:58:26.753Z,4.70
2019-05-14T00:59:01.627Z,4.70
2019-05-14T00:59:36.387Z,4.70
2019-05-14T01:00:11.945Z,4.70
2019-05-14T01:00:46.476Z,4.70
2019-05-14T01:01:21.601Z,4.70
2019-05-14T01:01:56.625Z,4.70
2019-05-14T01:02:31.887Z,4.70
2019-05-14T01:03:06.458Z,4.70
2019-05-14T01:03:41.564Z,4.70
2019-05-14T01:04:16.402Z,4.70
2019-05-14T01:04:51.753Z,4.70
2019-05-14T01:05:26.035Z,4.70
2019-05-14T01:06:02.978Z,4.70
2019-05-14T01:06:37.187Z,4.70
2019-05-14T01:07:12.165Z,4.70
2019-05-14T01:07:46.599Z,4.70
2019-05-14T01:08:21.652Z,4.70
2019-05-14T01:08:56.261Z,4.70
2019-05-14T01:09:31.570Z,4.70
2019-05-14T01:10:07.014Z,4.70
2019-05-14T01:10:41.850Z,4.70
2019-05-14T01:11:16.892Z,4.70
2019-05-14T01:11:51.883Z,4.70
2019-05-14T01:12:26.382Z,4.70
2019-05-14T01:13:01.374Z,4.70
2019-05-14T01:13:36.212Z,4.70
2019-05-14T01:14:12.212Z,4.70
2019-05-14T01:14:46.978Z,4.70
2019-05-14T01:15:22.074Z,4.60
2019-05-14T01:15:56.676Z,4.60
2019-05-14T01:16:31.778Z,4.70
2019-05-14T01:17:06.280Z,4.60
2019-05-14T01:17:42.173Z,4.60
2019-05-14T01:18:17.209Z,4.70
2019-05-14T01:18:52.243Z,4.60
2019-05-14T01:19:26.531Z,4.60
2019-05-14T01:20:03.147Z,4.60
2019-05-14T01:20:38.344Z,4.60
2019-05-14T01:21:12.837Z,4.70
2019-05-14T01:21:47.269Z,4.60
2019-05-14T01:22:21.977Z,4.60
2019-05-14T01:22:56.577Z,4.60
2019-05-14T01:23:32.298Z,4.60
2019-05-14T01:24:06.978Z,4.60
2019-05-14T01:24:41.879Z,4.70
2019-05-14T01:25:16.985Z,4.70
2019-05-14T01:25:52.057Z,4.70
2019-05-14T01:26:26.571Z,4.60
2019-05-14T01:27:01.733Z,4.60
2019-05-14T01:27:36.573Z,4.60
2019-05-14T01:28:11.346Z,4.60
2019-05-14T01:28:46.058Z,4.70
2019-05-14T01:29:21.943Z,4.60
2019-05-14T01:29:56.568Z,4.60
2019-05-14T01:30:31.985Z,4.60
2019-05-14T01:31:06.756Z,4.60
2019-05-14T01:31:41.861Z,4.60
2019-05-14T01:32:16.710Z,4.60
2019-05-14T01:32:51.457Z,4.60
2019-05-14T01:33:25.715Z,4.60
2019-05-14T01:34:02.235Z,4.60
2019-05-14T01:34:37.173Z,4.60
2019-05-14T01:35:12.262Z,4.60
2019-05-14T01:35:47.023Z,4.60
2019-05-14T01:36:21.868Z,4.60
2019-05-14T01:36:56.407Z,4.60
2019-05-14T01:37:31.230Z,4.60
2019-05-14T01:38:05.857Z,4.70
2019-05-14T01:38:41.908Z,4.70
2019-05-14T01:39:17.256Z,4.70
2019-05-14T01:39:52.207Z,4.70
2019-05-14T01:40:26.596Z,4.70
2019-05-14T01:41:02.028Z,4.70
2019-05-14T01:41:37.169Z,4.70
2019-05-14T01:42:12.707Z,4.70
2019-05-14T01:42:47.357Z,4.70
2019-05-14T01:43:22.236Z,4.70
2019-05-14T01:43:56.875Z,4.70
2019-05-14T01:44:31.964Z,4.70
2019-05-14T01:45:21.119Z,4.70
2019-05-14T01:45:43.127Z,4.70
2019-05-14T01:46:17.903Z,4.70
2019-05-14T01:46:52.827Z,4.70
2019-05-14T01:47:27.233Z,4.70
2019-05-14T01:48:02.067Z,4.70
2019-05-14T01:48:36.948Z,4.70
2019-05-14T01:49:12.038Z,4.70
2019-05-14T01:49:46.821Z,4.70
2019-05-14T01:50:21.748Z,4.70
2019-05-14T01:50:56.633Z,4.60
2019-05-14T01:51:31.878Z,4.60
2019-05-14T01:52:06.436Z,4.60
2019-05-14T01:52:41.597Z,4.60
2019-05-14T01:53:16.568Z,4.60
2019-05-14T01:53:52.098Z,4.60
2019-05-14T01:54:26.555Z,4.60
2019-05-14T01:55:02.182Z,4.60
2019-05-14T01:55:37.213Z,4.60
2019-05-14T01:56:12.102Z,4.60
2019-05-14T01:56:46.860Z,4.60
2019-05-14T01:57:22.088Z,4.60
2019-05-14T01:57:56.684Z,4.60
2019-05-14T01:58:31.535Z,4.60
2019-05-14T01:59:06.022Z,4.60
2019-05-14T01:59:42.826Z,4.60
2019-05-14T02:00:18.125Z,4.60
2019-05-14T02:00:53.157Z,4.60
2019-05-14T02:01:27.308Z,4.50
2019-05-14T02:02:02.489Z,4.50
2019-05-14T02:02:37.327Z,4.50
2019-05-14T02:03:12.233Z,4.50
2019-05-14T02:03:47.225Z,4.50
2019-05-14T02:04:22.424Z,4.50
2019-05-14T02:04:57.179Z,4.50
2019-05-14T02:05:32.052Z,4.60
2019-05-14T02:06:06.649Z,4.60
2019-05-14T02:06:41.617Z,4.60
2019-05-14T02:07:16.417Z,4.60
2019-05-14T02:07:52.597Z,4.60
2019-05-14T02:08:27.089Z,4.60
2019-05-14T02:09:02.149Z,4.60
2019-05-14T02:09:37.205Z,4.60
2019-05-14T02:10:12.477Z,4.60
2019-05-14T02:10:47.012Z,4.60
2019-05-14T02:11:22.119Z,4.60
2019-05-14T02:11:56.708Z,4.60
2019-05-14T02:12:31.618Z,4.60
2019-05-14T02:13:06.058Z,4.60
2019-05-14T02:13:41.403Z,4.60
2019-05-14T02:14:16.354Z,4.50
2019-05-14T02:14:51.416Z,4.50
2019-05-14T02:15:37.193Z,4.50
2019-05-14T02:16:02.932Z,4.50
2019-05-14T02:16:37.879Z,4.50
2019-05-14T02:17:12.787Z,4.50
2019-05-14T02:17:47.365Z,4.50
2019-05-14T02:18:22.215Z,4.50
2019-05-14T02:18:56.715Z,4.50
2019-05-14T02:19:31.929Z,4.50
2019-05-14T02:20:07.795Z,4.50
2019-05-14T02:20:43.548Z,4.50
2019-05-14T02:21:18.540Z,4.50
2019-05-14T02:21:53.318Z,4.50
2019-05-14T02:22:27.727Z,4.50
2019-05-14T02:23:02.483Z,4.50
2019-05-14T02:23:37.817Z,4.50
2019-05-14T02:24:12.465Z,4.50
2019-05-14T02:24:46.769Z,4.60
2019-05-14T02:25:21.787Z,4.60
2019-05-14T02:25:56.467Z,4.60
2019-05-14T02:26:31.785Z,4.50
2019-05-14T02:27:06.476Z,4.50
2019-05-14T02:27:41.486Z,4.60
2019-05-14T02:28:16.485Z,4.60
2019-05-14T02:28:51.541Z,4.50
2019-05-14T02:29:25.885Z,4.50
2019-05-14T02:30:01.695Z,4.50
2019-05-14T02:30:48.123Z,4.50
2019-05-14T02:31:13.399Z,4.50
2019-05-14T02:31:50.370Z,4.50
2019-05-14T02:32:24.550Z,4.50
2019-05-14T02:32:59.734Z,4.50
2019-05-14T02:33:34.610Z,4.50
2019-05-14T02:34:10.142Z,4.60
2019-05-14T02:34:45.215Z,4.60
2019-05-14T02:35:20.284Z,4.60
2019-05-14T02:35:55.131Z,4.60
2019-05-14T02:36:30.950Z,4.60
2019-05-14T02:37:09.129Z,4.60
2019-05-14T02:37:43.155Z,4.60
2019-05-14T02:38:19.378Z,4.60
2019-05-14T02:38:54.067Z,4.60
2019-05-14T02:39:29.414Z,4.60
2019-05-14T02:40:05.107Z,4.60
2019-05-14T02:40:40.563Z,4.60
2019-05-14T02:41:15.112Z,4.60
2019-05-14T02:41:50.144Z,4.60
2019-05-14T02:42:25.051Z,4.60
2019-05-14T02:42:59.879Z,4.60
2019-05-14T02:43:34.450Z,4.60
2019-05-14T02:44:10.237Z,4.60
2019-05-14T02:44:45.292Z,4.50
2019-05-14T02:45:20.279Z,4.60
2019-05-14T02:46:09.105Z,4.60
2019-05-14T02:46:31.614Z,4.60
2019-05-14T02:47:06.169Z,4.60
2019-05-14T02:47:41.201Z,4.60
2019-05-14T02:48:15.662Z,4.60
2019-05-14T02:48:50.431Z,4.60
2019-05-14T02:49:25.275Z,4.60
2019-05-14T02:50:00.109Z,4.60
2019-05-14T02:50:34.243Z,4.60
2019-05-14T02:51:10.558Z,4.60
2019-05-14T02:51:45.558Z,4.60
2019-05-14T02:52:20.694Z,4.60
2019-05-14T02:52:55.633Z,4.60
2019-05-14T02:53:30.745Z,4.60
2019-05-14T02:54:05.446Z,4.60
2019-05-14T02:54:40.808Z,4.60
2019-05-14T02:55:15.690Z,4.60
2019-05-14T02:55:50.405Z,4.60
2019-05-14T02:56:25.390Z,4.60
2019-05-14T02:57:00.447Z,4.60
2019-05-14T02:57:34.878Z,4.60
2019-05-14T02:58:10.194Z,4.60
2019-05-14T02:58:45.207Z,4.50
2019-05-14T02:59:19.895Z,4.60
2019-05-14T02:59:54.388Z,4.60
2019-05-14T03:00:30.167Z,4.50
2019-05-14T03:01:05.119Z,4.60
2019-05-14T03:01:40.736Z,4.50
2019-05-14T03:02:15.444Z,4.50
2019-05-14T03:02:50.373Z,4.50
2019-05-14T03:03:25.573Z,4.50
2019-05-14T03:04:00.850Z,4.50
2019-05-14T03:04:35.218Z,4.50
2019-05-14T03:05:10.699Z,4.50
2019-05-14T03:05:45.576Z,4.50
2019-05-14T03:06:20.418Z,4.50
2019-05-14T03:06:55.103Z,4.50
2019-05-14T03:07:30.325Z,4.50
2019-05-14T03:08:08.773Z,4.50
2019-05-14T03:08:42.119Z,4.50
2019-05-14T03:09:20.054Z,4.50
2019-05-14T03:09:53.376Z,4.50
2019-05-14T03:10:30.160Z,4.50
2019-05-14T03:11:04.638Z,4.50
2019-05-14T03:11:40.326Z,4.50
2019-05-14T03:12:19.200Z,4.50
2019-05-14T03:12:52.318Z,4.50
2019-05-14T03:13:29.589Z,4.50
2019-05-14T03:14:03.788Z,4.40
2019-05-14T03:14:39.617Z,4.40
2019-05-14T03:15:15.382Z,4.50
2019-05-14T03:15:50.316Z,4.40
2019-05-14T03:16:30.833Z,4.40
2019-05-14T03:17:01.977Z,4.40
2019-05-14T03:17:40.076Z,4.50
2019-05-14T03:18:13.604Z,4.50
2019-05-14T03:18:50.259Z,4.40
2019-05-14T03:19:24.726Z,4.40
2019-05-14T03:20:00.148Z,4.40
2019-05-14T03:20:35.137Z,4.40
2019-05-14T03:21:09.821Z,4.40
2019-05-14T03:21:44.804Z,4.50
2019-05-14T03:22:27.717Z,4.50
2019-05-14T03:23:04.948Z,4.40
2019-05-14T03:23:32.609Z,4.50
2019-05-14T03:24:09.434Z,4.50
2019-05-14T03:24:43.901Z,4.50
2019-05-14T03:25:19.383Z,4.50
2019-05-14T03:25:54.022Z,4.40
2019-05-14T03:26:29.701Z,4.50
2019-05-14T03:27:05.104Z,4.50
2019-05-14T03:27:40.692Z,4.50
2019-05-14T03:28:15.129Z,4.50
2019-05-14T03:28:50.133Z,4.50
2019-05-14T03:29:26.167Z,4.50
2019-05-14T03:30:01.713Z,4.50
2019-05-14T03:30:41.731Z,4.50
2019-05-14T03:31:13.403Z,4.50
2019-05-14T03:31:52.586Z,4.60
2019-05-14T03:32:25.191Z,4.60
2019-05-14T03:33:02.814Z,4.60
2019-05-14T03:33:36.329Z,4.60
2019-05-14T03:34:13.650Z,4.60
2019-05-14T03:34:53.315Z,4.60
2019-05-14T03:35:32.818Z,4.60
2019-05-14T03:36:08.852Z,4.60
2019-05-14T03:36:42.685Z,4.60
2019-05-14T03:37:14.530Z,4.60
2019-05-14T03:37:49.958Z,4.60
2019-05-14T03:38:24.779Z,4.60
2019-05-14T03:38:59.804Z,4.60
2019-05-14T03:39:34.819Z,4.70
2019-05-14T03:40:09.654Z,4.70
2019-05-14T03:40:44.705Z,4.70
2019-05-14T03:41:19.892Z,4.70
2019-05-14T03:41:54.986Z,4.70
2019-05-14T03:42:29.958Z,4.70
2019-05-14T03:43:05.068Z,4.70
2019-05-14T03:43:39.789Z,4.70
2019-05-14T03:44:14.543Z,4.70
2019-05-14T03:44:49.218Z,4.70
2019-05-14T03:45:24.369Z,4.70
2019-05-14T03:45:59.680Z,4.70
2019-05-14T03:46:46.049Z,4.70
2019-05-14T03:47:10.926Z,4.70
2019-05-14T03:47:46.043Z,4.70
2019-05-14T03:48:21.266Z,4.80
2019-05-14T03:48:55.938Z,4.80
2019-05-14T03:49:30.721Z,4.80
2019-05-14T03:50:09.865Z,4.80
2019-05-14T03:50:42.928Z,4.80
2019-05-14T03:51:20.406Z,4.80
2019-05-14T03:51:54.359Z,4.80
2019-05-14T03:52:29.625Z,4.80
2019-05-14T03:53:04.788Z,4.80
2019-05-14T03:53:55.046Z,4.80
2019-05-14T03:54:19.217Z,4.90
2019-05-14T03:54:52.440Z,4.90
2019-05-14T03:55:29.265Z,4.90
2019-05-14T03:56:03.949Z,4.90
2019-05-14T03:56:39.542Z,4.90
2019-05-14T03:57:14.805Z,4.90
2019-05-14T03:57:50.309Z,4.90
2019-05-14T03:58:25.349Z,4.90
2019-05-14T03:59:00.211Z,4.90
2019-05-14T03:59:35.583Z,5.00
2019-05-14T04:00:11.403Z,5.00
2019-05-14T04:00:52.998Z,5.00
2019-05-14T04:01:29.588Z,4.90
2019-05-14T04:02:04.484Z,5.00
2019-05-14T04:02:39.930Z,5.00
2019-05-14T04:03:15.005Z,4.90
2019-05-14T04:03:50.596Z,5.00
2019-05-14T04:04:29.686Z,5.00
2019-05-14T04:05:03.049Z,5.00
2019-05-14T04:05:40.099Z,5.00
2019-05-14T04:06:14.913Z,5.00
2019-05-14T04:06:50.938Z,5.00
2019-05-14T04:07:30.361Z,5.10
2019-05-14T04:08:04.296Z,5.10
2019-05-14T04:08:41.206Z,5.10
2019-05-14T04:09:20.129Z,5.10
2019-05-14T04:09:54.308Z,5.20
2019-05-14T04:10:30.170Z,5.10
2019-05-14T04:11:04.933Z,5.20
2019-05-14T04:11:43.408Z,5.20
2019-05-14T04:12:20.227Z,5.20
2019-05-14T04:12:59.675Z,5.20
2019-05-14T04:13:34.794Z,5.20
2019-05-14T04:14:12.741Z,5.20
2019-05-14T04:14:50.350Z,5.20
2019-05-14T04:15:29.881Z,5.30
2019-05-14T04:16:05.362Z,5.30
2019-05-14T04:16:59.872Z,5.30
2019-05-14T04:17:32.144Z,5.30
2019-05-14T04:17:59.825Z,5.30
2019-05-14T04:18:40.326Z,5.30
2019-05-14T04:19:18.973Z,5.30
2019-05-14T04:19:55.794Z,5.30
2019-05-14T04:20:33.721Z,5.30
2019-05-14T04:21:10.048Z,5.30
2019-05-14T04:21:49.096Z,5.30
2019-05-14T04:22:24.852Z,5.30
2019-05-14T04:23:01.552Z,5.30
2019-05-14T04:23:39.554Z,5.30
2019-05-14T04:24:16.089Z,5.40
2019-05-14T04:24:52.676Z,5.40
2019-05-14T04:25:30.257Z,5.40
2019-05-14T04:26:09.183Z,5.40
2019-05-14T04:27:01.555Z,5.40
2019-05-14T04:27:30.288Z,5.40
2019-05-14T04:28:09.830Z,5.40
2019-05-14T04:28:49.402Z,5.30
2019-05-14T04:29:25.589Z,5.30
2019-05-14T04:30:02.786Z,5.40
2019-05-14T04:30:40.217Z,5.40
2019-05-14T04:31:19.024Z,5.40
2019-05-14T04:31:55.012Z,5.40
2019-05-14T04:32:31.923Z,5.40
2019-05-14T04:33:10.658Z,5.40
2019-05-14T04:33:50.171Z,5.40
2019-05-14T04:34:25.595Z,5.40
2019-05-14T04:35:01.291Z,5.40
2019-05-14T04:35:36.029Z,5.40
2019-05-14T04:36:11.290Z,5.50
2019-05-14T04:36:49.939Z,5.40
2019-05-14T04:37:23.269Z,5.50
2019-05-14T04:37:58.917Z,5.50
2019-05-14T04:38:34.251Z,5.50
2019-05-14T04:39:09.825Z,5.50
2019-05-14T04:39:44.879Z,5.50
2019-05-14T04:40:19.358Z,5.60
2019-05-14T04:40:54.596Z,5.50
2019-05-14T04:41:30.106Z,5.50
2019-05-14T04:42:05.197Z,5.50
2019-05-14T04:42:40.402Z,5.60
2019-05-14T04:43:19.045Z,5.50
2019-05-14T04:43:52.007Z,5.60
2019-05-14T04:44:29.771Z,5.60
2019-05-14T04:45:05.757Z,5.60
2019-05-14T04:45:39.918Z,5.60
2019-05-14T04:46:15.094Z,5.60
2019-05-14T04:46:50.165Z,5.60
2019-05-14T04:47:31.899Z,5.60
2019-05-14T04:48:01.392Z,5.70
2019-05-14T04:48:42.352Z,5.70
2019-05-14T04:49:13.011Z,5.70
2019-05-14T04:49:50.503Z,5.70
2019-05-14T04:50:25.577Z,5.70
2019-05-14T04:51:00.789Z,5.70
2019-05-14T04:51:35.630Z,5.80
2019-05-14T04:52:10.442Z,5.80
2019-05-14T04:52:45.360Z,5.80
2019-05-14T04:53:20.287Z,5.80
2019-05-14T04:53:55.369Z,5.90
2019-05-14T04:54:30.421Z,5.90
2019-05-14T04:55:05.946Z,5.90
2019-05-14T04:55:41.732Z,5.80
2019-05-14T04:56:19.278Z,5.90
2019-05-14T04:56:52.841Z,5.90
2019-05-14T04:57:29.926Z,5.90
2019-05-14T04:58:09.815Z,5.90
2019-05-14T04:58:44.043Z,5.90
2019-05-14T04:59:21.526Z,5.90
2019-05-14T05:01:00.122Z,5.90
2019-05-14T05:01:33.034Z,5.90
2019-05-14T05:02:09.585Z,5.90
2019-05-14T05:02:44.430Z,5.90
2019-05-14T05:03:19.890Z,5.90
2019-05-14T05:03:55.008Z,5.90
2019-05-14T05:04:30.301Z,6.00
2019-05-14T05:05:08.850Z,6.00
2019-05-14T05:05:42.864Z,6.00
2019-05-14T05:06:19.205Z,6.00
2019-05-14T05:06:53.641Z,6.00
2019-05-14T05:07:29.848Z,6.00
2019-05-14T05:08:04.853Z,6.10
2019-05-14T05:08:39.820Z,6.10
2019-05-14T05:09:15.049Z,6.10
2019-05-14T05:09:50.459Z,6.10
2019-05-14T05:10:25.717Z,6.20
2019-05-14T05:11:00.769Z,6.20
2019-05-14T05:11:35.452Z,6.20
2019-05-14T05:12:10.654Z,6.20
2019-05-14T05:12:45.718Z,6.20
2019-05-14T05:13:20.134Z,6.20
2019-05-14T05:13:55.022Z,6.20
2019-05-14T05:14:29.966Z,6.20
2019-05-14T05:15:05.546Z,6.20
2019-05-14T05:15:40.284Z,6.20
2019-05-14T05:16:15.184Z,6.20
2019-05-14T05:16:49.763Z,6.20
2019-05-14T05:17:40.183Z,6.20
2019-05-14T05:18:00.946Z,6.30
2019-05-14T05:18:35.878Z,6.20
2019-05-14T05:19:10.750Z,6.20
2019-05-14T05:19:46.252Z,6.30
2019-05-14T05:20:20.744Z,6.30
2019-05-14T05:20:58.202Z,6.40
2019-05-14T05:21:32.854Z,6.40
2019-05-14T05:22:08.102Z,6.40
2019-05-14T05:22:42.646Z,6.40
2019-05-14T05:23:18.969Z,6.40
2019-05-14T05:23:53.979Z,6.40
2019-05-14T05:24:28.989Z,6.40
2019-05-14T05:25:03.815Z,6.50
2019-05-14T05:25:38.625Z,6.50
2019-05-14T05:26:13.577Z,6.50
2019-05-14T05:26:48.728Z,6.60
2019-05-14T05:27:23.105Z,6.60
2019-05-14T05:27:59.781Z,6.60
2019-05-14T05:28:35.070Z,6.60
2019-05-14T05:29:10.591Z,6.70
2019-05-14T05:29:45.297Z,6.70
2019-05-14T05:30:20.569Z,6.70
2019-05-14T05:30:55.340Z,6.60
2019-05-14T05:31:30.091Z,6.60
2019-05-14T05:32:04.916Z,6.50
2019-05-14T05:32:39.615Z,6.60
2019-05-14T05:33:14.895Z,6.60
2019-05-14T05:33:49.844Z,6.60
2019-05-14T05:34:24.196Z,6.60
2019-05-14T05:34:59.420Z,6.60
2019-05-14T05:35:34.536Z,6.60
2019-05-14T05:36:09.709Z,6.60
2019-05-14T05:36:44.403Z,6.60
2019-05-14T05:37:19.293Z,6.60
2019-05-14T05:37:53.918Z,6.60
2019-05-14T05:38:29.459Z,6.60
2019-05-14T05:39:08.419Z,6.70
2019-05-14T05:39:42.168Z,6.70
2019-05-14T05:40:19.672Z,6.70
2019-05-14T05:40:56.695Z,6.70
2019-05-14T05:41:30.578Z,6.70
2019-05-14T05:42:05.622Z,6.70
2019-05-14T05:42:40.692Z,6.70
2019-05-14T05:43:15.508Z,6.80
2019-05-14T05:43:50.209Z,6.80
2019-05-14T05:44:25.281Z,6.80
2019-05-14T05:44:59.971Z,6.80
2019-05-14T05:45:34.959Z,6.80
2019-05-14T05:46:09.777Z,6.80
2019-05-14T05:46:44.834Z,6.80
2019-05-14T05:47:19.998Z,6.80
2019-05-14T05:47:58.320Z,6.80
2019-05-14T05:48:31.095Z,6.80
2019-05-14T05:49:08.010Z,6.80
2019-05-14T05:49:42.738Z,6.80
2019-05-14T05:50:19.290Z,6.80
2019-05-14T05:50:54.121Z,6.80
2019-05-14T05:51:29.181Z,6.70
2019-05-14T05:52:03.751Z,6.70
2019-05-14T05:52:39.027Z,6.70
2019-05-14T05:53:13.491Z,6.70
2019-05-14T05:53:48.537Z,6.60
2019-05-14T05:54:23.701Z,6.60
2019-05-14T05:54:58.761Z,6.60
2019-05-14T05:55:32.853Z,6.60
2019-05-14T05:56:08.907Z,6.60
2019-05-14T05:56:44.468Z,6.70
2019-05-14T05:57:19.220Z,6.70
2019-05-14T05:57:53.797Z,6.70
2019-05-14T05:58:29.935Z,6.70
2019-05-14T05:59:05.055Z,6.70
2019-05-14T05:59:40.038Z,6.70
2019-05-14T06:00:14.948Z,6.70
2019-05-14T06:00:49.976Z,6.70
2019-05-14T06:01:39.466Z,6.80
2019-05-14T06:02:02.097Z,6.70
2019-05-14T06:02:36.469Z,6.70
2019-05-14T06:03:11.702Z,6.80
2019-05-14T06:03:49.024Z,6.80
2019-05-14T06:04:23.449Z,6.80
2019-05-14T06:04:58.742Z,6.90
2019-05-14T06:05:33.865Z,6.90
2019-05-14T06:06:13.440Z,6.90
2019-05-14T06:06:48.029Z,6.90
2019-05-14T06:07:21.936Z,6.90
2019-05-14T06:07:58.986Z,6.90
2019-05-14T06:08:33.567Z,6.90
2019-05-14T06:09:09.036Z,6.90
2019-05-14T06:09:43.546Z,7.00
2019-05-14T06:10:18.814Z,7.00
2019-05-14T06:10:53.843Z,6.90
2019-05-14T06:11:29.154Z,6.90
2019-05-14T06:12:04.036Z,7.00
2019-05-14T06:12:39.143Z,7.00
2019-05-14T06:13:14.207Z,7.00
2019-05-14T06:13:49.275Z,6.90
2019-05-14T06:14:24.071Z,6.90
2019-05-14T06:14:58.919Z,6.90
2019-05-14T06:15:44.482Z,6.90
2019-05-14T06:16:10.565Z,6.90
2019-05-14T06:16:44.937Z,6.90
2019-05-14T06:17:20.225Z,6.90
2019-05-14T06:18:09.334Z,6.90
2019-05-14T06:18:34.435Z,6.90
2019-05-14T06:19:08.403Z,6.90
2019-05-14T06:19:43.374Z,6.90
2019-05-14T06:20:18.958Z,6.90
2019-05-14T06:20:54.222Z,6.90
2019-05-14T06:21:29.383Z,6.90
2019-05-14T06:22:04.415Z,6.90
2019-05-14T06:22:39.547Z,7.00
2019-05-14T06:23:14.502Z,7.00
2019-05-14T06:23:49.655Z,7.00
2019-05-14T06:24:24.714Z,7.00
2019-05-14T06:24:59.600Z,7.00
2019-05-14T06:25:34.334Z,7.00
2019-05-14T06:26:11.532Z,7.00
2019-05-14T06:26:45.989Z,7.00
2019-05-14T06:27:21.010Z,7.00
2019-05-14T06:27:55.851Z,7.00
2019-05-14T06:28:33.533Z,7.00
2019-05-14T06:29:08.420Z,7.00
2019-05-14T06:29:43.855Z,7.00
2019-05-14T06:30:31.320Z,6.90
2019-05-14T06:31:09.567Z,6.90
2019-05-14T06:31:42.304Z,6.90
2019-05-14T06:32:18.736Z,6.90
2019-05-14T06:32:53.869Z,7.00
2019-05-14T06:33:28.768Z,7.00
2019-05-14T06:34:03.771Z,7.00
2019-05-14T06:34:38.488Z,7.00
2019-05-14T06:35:14.336Z,7.00
2019-05-14T06:35:49.034Z,7.00
2019-05-14T06:36:24.071Z,7.00
2019-05-14T06:36:59.316Z,7.00
2019-05-14T06:37:34.527Z,7.00
2019-05-14T06:38:09.014Z,7.10
2019-05-14T06:38:44.106Z,7.10
2019-05-14T06:39:19.225Z,7.20
2019-05-14T06:39:54.175Z,7.20
2019-05-14T06:40:28.877Z,7.20
2019-05-14T06:41:03.857Z,7.20
2019-05-14T06:41:42.535Z,7.20
2019-05-14T06:42:15.669Z,7.20
2019-05-14T06:42:50.335Z,7.30
2019-05-14T06:43:25.385Z,7.30
2019-05-14T06:44:00.254Z,7.30
2019-05-14T06:44:35.359Z,7.30
2019-05-14T06:45:09.881Z,7.30
2019-05-14T06:45:44.855Z,7.30
2019-05-14T06:46:20.004Z,7.20
2019-05-14T06:46:54.916Z,7.30
2019-05-14T06:47:29.473Z,7.30
2019-05-14T06:48:04.194Z,7.20
2019-05-14T06:48:39.593Z,7.20
2019-05-14T06:49:15.081Z,7.20
2019-05-14T06:49:49.747Z,7.20
2019-05-14T06:50:24.431Z,7.20
2019-05-14T06:50:59.619Z,7.20
2019-05-14T06:51:34.665Z,7.20
2019-05-14T06:52:09.130Z,7.20
2019-05-14T06:52:44.195Z,7.20
2019-05-14T06:53:19.531Z,7.20
2019-05-14T06:53:54.570Z,7.20
2019-05-14T06:54:29.436Z,7.10
2019-05-14T06:55:04.849Z,7.20
2019-05-14T06:55:39.822Z,7.20
2019-05-14T06:56:17.968Z,7.20
2019-05-14T06:56:51.128Z,7.20
2019-05-14T06:57:25.772Z,7.20
2019-05-14T06:58:00.838Z,7.20
2019-05-14T06:58:38.634Z,7.20
2019-05-14T06:59:12.262Z,7.20
2019-05-14T06:59:48.391Z,7.10
2019-05-14T07:00:24.009Z,7.10
2019-05-14T07:00:59.302Z,7.10
2019-05-14T07:01:33.928Z,7.10
2019-05-14T07:02:08.954Z,7.10
2019-05-14T07:02:44.310Z,7.10
2019-05-14T07:03:19.385Z,7.20
2019-05-14T07:03:54.014Z,7.20
2019-05-14T07:04:29.075Z,7.20
2019-05-14T07:05:04.130Z,7.30
2019-05-14T07:05:39.299Z,7.20
2019-05-14T07:06:13.753Z,7.20
2019-05-14T07:06:49.015Z,7.20
2019-05-14T07:07:23.849Z,7.10
2019-05-14T07:07:59.754Z,7.10
2019-05-14T07:08:34.591Z,7.10
2019-05-14T07:09:09.675Z,7.10
2019-05-14T07:09:44.289Z,7.00
2019-05-14T07:10:19.764Z,7.00
2019-05-14T07:10:54.446Z,7.00
2019-05-14T07:11:29.363Z,7.00
2019-05-14T07:12:04.146Z,7.00
2019-05-14T07:12:39.228Z,7.00
2019-05-14T07:13:13.737Z,7.00
2019-05-14T07:13:49.312Z,7.10
2019-05-14T07:14:24.497Z,7.10
2019-05-14T07:14:59.228Z,7.10
2019-05-14T07:15:33.586Z,7.00
2019-05-14T07:16:08.983Z,7.00
2019-05-14T07:16:44.150Z,7.00
2019-05-14T07:17:19.066Z,7.10
2019-05-14T07:17:53.672Z,7.10
2019-05-14T07:18:33.383Z,7.10
2019-05-14T07:19:04.848Z,7.10
2019-05-14T07:19:39.762Z,7.10
2019-05-14T07:20:15.065Z,7.00
2019-05-14T07:20:50.140Z,7.10
2019-05-14T07:21:25.283Z,7.00
2019-05-14T07:22:00.230Z,7.00
2019-05-14T07:22:34.677Z,7.00
2019-05-14T07:23:09.724Z,7.00
2019-05-14T07:23:44.579Z,6.90
2019-05-14T07:24:19.750Z,6.90
2019-05-14T07:24:54.289Z,6.80
2019-05-14T07:25:29.175Z,6.80
2019-05-14T07:26:03.976Z,6.80
2019-05-14T07:26:39.046Z,6.80
2019-05-14T07:27:13.692Z,6.70
2019-05-14T07:27:49.055Z,6.70
2019-05-14T07:28:23.986Z,6.70
2019-05-14T07:28:59.135Z,6.60
2019-05-14T07:29:33.973Z,6.60
2019-05-14T07:30:09.653Z,6.50
2019-05-14T07:30:44.649Z,6.50
2019-05-14T07:31:19.661Z,6.50
2019-05-14T07:31:54.225Z,6.50
2019-05-14T07:32:28.978Z,6.50
2019-05-14T07:33:03.933Z,6.50
2019-05-14T07:33:39.133Z,6.50
2019-05-14T07:34:13.465Z,6.50
2019-05-14T07:34:48.680Z,6.40
2019-05-14T07:35:23.902Z,6.40
2019-05-14T07:35:59.314Z,6.40
2019-05-14T07:36:34.555Z,6.40
2019-05-14T07:37:09.702Z,6.30
2019-05-14T07:37:44.481Z,6.30
2019-05-14T07:38:19.664Z,6.30
2019-05-14T07:38:56.519Z,6.30
2019-05-14T07:39:30.643Z,6.20
2019-05-14T07:40:08.549Z,6.20
2019-05-14T07:40:43.181Z,6.20
2019-05-14T07:41:19.289Z,6.20
2019-05-14T07:41:54.340Z,6.20
2019-05-14T07:42:29.468Z,6.20
2019-05-14T07:43:04.604Z,6.20
2019-05-14T07:43:39.601Z,6.20
2019-05-14T07:44:14.858Z,6.20
2019-05-14T07:44:49.700Z,6.20
2019-05-14T07:45:24.681Z,6.20
2019-05-14T07:45:59.341Z,6.20
2019-05-14T07:46:34.247Z,6.20
2019-05-14T07:47:09.061Z,6.20
2019-05-14T07:47:43.905Z,6.10
2019-05-14T07:48:19.056Z,6.10
2019-05-14T07:49:05.417Z,6.10
2019-05-14T07:49:30.837Z,6.10
2019-05-14T07:50:08.598Z,6.10
2019-05-14T07:50:42.927Z,6.00
2019-05-14T07:51:19.018Z,6.00